sensor_id;sensor_type;location;lat;lon;timestamp;P1;durP1;ratioP1;P2;durP2;ratioP2
10497;SDS011;5296;51.060;13.750;2023-03-23T00:01:54;2.55;;;2.35;;
10497;SDS011;5296;51.060;13.750;2023-03-23T00:06:55;2.95;;;1.98;;
10497;SDS011;5296;51.060;13.750;2023-03-23T00:11:55;3.10;;;2.08;;
10497;SDS011;5296;51.060;13.750;2023-03-23T00:17:05;2.45;;;2.25;;
10497;SDS011;5296;51.060;13.750;2023-03-23T00:22:05;2.22;;;2.08;;
10497;SDS011;5296;51.060;13.750;2023-03-23T00:27:06;2.42;;;2.08;;
10497;SDS011;5296;51.060;13.750;2023-03-23T00:32:09;2.25;;;2.05;;
10497;SDS011;5296;51.060;13.750;2023-03-23T00:37:13;2.30;;;1.85;;
10497;SDS011;5296;51.060;13.750;2023-03-23T00:42:17;2.17;;;1.98;;
10497;SDS011;5296;51.060;13.750;2023-03-23T00:47:18;2.20;;;1.80;;
10497;SDS011;5296;51.060;13.750;2023-03-23T00:52:18;1.92;;;1.70;;
10497;SDS011;5296;51.060;13.750;2023-03-23T00:57:19;1.80;;;1.23;;
10497;SDS011;5296;51.060;13.750;2023-03-23T01:02:24;2.63;;;1.50;;
10497;SDS011;5296;51.060;13.750;2023-03-23T01:07:25;1.42;;;1.27;;
10497;SDS011;5296;51.060;13.750;2023-03-23T01:12:28;2.00;;;1.30;;
10497;SDS011;5296;51.060;13.750;2023-03-23T01:17:30;4.75;;;1.40;;
10497;SDS011;5296;51.060;13.750;2023-03-23T01:22:31;2.67;;;1.70;;
10497;SDS011;5296;51.060;13.750;2023-03-23T01:27:32;2.20;;;1.70;;
10497;SDS011;5296;51.060;13.750;2023-03-23T01:32:33;1.45;;;1.35;;
10497;SDS011;5296;51.060;13.750;2023-03-23T01:37:34;2.22;;;1.52;;
10497;SDS011;5296;51.060;13.750;2023-03-23T01:42:37;1.52;;;1.38;;
10497;SDS011;5296;51.060;13.750;2023-03-23T01:47:40;1.67;;;1.35;;
10497;SDS011;5296;51.060;13.750;2023-03-23T01:52:41;1.58;;;1.35;;
10497;SDS011;5296;51.060;13.750;2023-03-23T01:57:41;1.38;;;1.27;;
10497;SDS011;5296;51.060;13.750;2023-03-23T02:02:43;1.60;;;1.40;;
10497;SDS011;5296;51.060;13.750;2023-03-23T02:07:46;1.15;;;1.10;;
10497;SDS011;5296;51.060;13.750;2023-03-23T02:12:49;3.20;;;1.40;;
10497;SDS011;5296;51.060;13.750;2023-03-23T02:17:52;1.30;;;1.20;;
10497;SDS011;5296;51.060;13.750;2023-03-23T02:33:50;1.13;;;1.02;;
10497;SDS011;5296;51.060;13.750;2023-03-23T02:39:24;1.23;;;1.13;;
10497;SDS011;5296;51.060;13.750;2023-03-23T02:44:27;2.65;;;1.33;;
10497;SDS011;5296;51.060;13.750;2023-03-23T02:49:31;1.75;;;1.20;;
10497;SDS011;5296;51.060;13.750;2023-03-23T02:54:32;1.90;;;1.10;;
10497;SDS011;5296;51.060;13.750;2023-03-23T02:59:33;1.20;;;1.10;;
10497;SDS011;5296;51.060;13.750;2023-03-23T03:04:34;1.05;;;1.00;;
10497;SDS011;5296;51.060;13.750;2023-03-23T03:14:53;1.10;;;1.00;;
10497;SDS011;5296;51.060;13.750;2023-03-23T03:19:59;2.03;;;1.13;;
10497;SDS011;5296;51.060;13.750;2023-03-23T03:25:11;1.25;;;1.00;;
10497;SDS011;5296;51.060;13.750;2023-03-23T03:30:15;3.17;;;1.25;;
10497;SDS011;5296;51.060;13.750;2023-03-23T03:35:22;1.60;;;1.20;;
10497;SDS011;5296;51.060;13.750;2023-03-23T03:40:24;1.20;;;1.10;;
10497;SDS011;5296;51.060;13.750;2023-03-23T03:45:25;2.47;;;1.70;;
10497;SDS011;5296;51.060;13.750;2023-03-23T03:50:25;1.92;;;1.20;;
10497;SDS011;5296;51.060;13.750;2023-03-23T03:55:26;1.38;;;1.27;;
10497;SDS011;5296;51.060;13.750;2023-03-23T04:00:29;1.45;;;1.35;;
10497;SDS011;5296;51.060;13.750;2023-03-23T04:05:30;1.33;;;1.20;;
10497;SDS011;5296;51.060;13.750;2023-03-23T04:10:31;1.17;;;1.17;;
10497;SDS011;5296;51.060;13.750;2023-03-23T04:15:33;1.30;;;1.10;;
10497;SDS011;5296;51.060;13.750;2023-03-23T04:20:34;1.30;;;1.20;;
10497;SDS011;5296;51.060;13.750;2023-03-23T04:25:35;1.92;;;1.27;;
10497;SDS011;5296;51.060;13.750;2023-03-23T04:30:37;2.28;;;1.30;;
10497;SDS011;5296;51.060;13.750;2023-03-23T04:35:41;2.35;;;1.38;;
10497;SDS011;5296;51.060;13.750;2023-03-23T04:41:01;1.75;;;1.30;;
10497;SDS011;5296;51.060;13.750;2023-03-23T04:46:34;2.55;;;1.58;;
10497;SDS011;5296;51.060;13.750;2023-03-23T04:51:41;1.85;;;1.70;;
10497;SDS011;5296;51.060;13.750;2023-03-23T04:56:50;1.88;;;1.77;;
10497;SDS011;5296;51.060;13.750;2023-03-23T05:01:51;1.98;;;1.75;;
10497;SDS011;5296;51.060;13.750;2023-03-23T05:06:53;4.90;;;1.80;;
10497;SDS011;5296;51.060;13.750;2023-03-23T05:12:03;2.00;;;1.60;;
10497;SDS011;5296;51.060;13.750;2023-03-23T05:17:07;3.05;;;2.00;;
10497;SDS011;5296;51.060;13.750;2023-03-23T05:22:08;2.70;;;1.83;;
10497;SDS011;5296;51.060;13.750;2023-03-23T05:27:19;2.95;;;1.80;;
10497;SDS011;5296;51.060;13.750;2023-03-23T05:32:22;2.83;;;1.70;;
10497;SDS011;5296;51.060;13.750;2023-03-23T05:37:35;3.30;;;2.08;;
10497;SDS011;5296;51.060;13.750;2023-03-23T05:42:44;3.75;;;2.08;;
10497;SDS011;5296;51.060;13.750;2023-03-23T05:47:57;2.33;;;2.10;;
10497;SDS011;5296;51.060;13.750;2023-03-23T05:53:01;2.10;;;1.90;;
10497;SDS011;5296;51.060;13.750;2023-03-23T05:58:02;2.78;;;1.67;;
10497;SDS011;5296;51.060;13.750;2023-03-23T06:03:07;2.10;;;1.90;;
10497;SDS011;5296;51.060;13.750;2023-03-23T06:08:19;3.42;;;1.95;;
10497;SDS011;5296;51.060;13.750;2023-03-23T06:13:20;4.38;;;2.17;;
10497;SDS011;5296;51.060;13.750;2023-03-23T06:18:23;4.40;;;2.22;;
10497;SDS011;5296;51.060;13.750;2023-03-23T06:23:53;2.28;;;1.98;;
10497;SDS011;5296;51.060;13.750;2023-03-23T06:28:57;2.97;;;1.75;;
10497;SDS011;5296;51.060;13.750;2023-03-23T06:33:59;3.33;;;2.00;;
10497;SDS011;5296;51.060;13.750;2023-03-23T06:38:59;4.80;;;1.80;;
10497;SDS011;5296;51.060;13.750;2023-03-23T06:44:15;1.63;;;1.50;;
10497;SDS011;5296;51.060;13.750;2023-03-23T06:49:16;3.13;;;1.48;;
10497;SDS011;5296;51.060;13.750;2023-03-23T06:54:24;2.67;;;1.60;;
10497;SDS011;5296;51.060;13.750;2023-03-23T06:59:25;3.42;;;1.50;;
10497;SDS011;5296;51.060;13.750;2023-03-23T07:04:26;1.10;;;1.10;;
10497;SDS011;5296;51.060;13.750;2023-03-23T07:09:50;4.10;;;1.45;;
10497;SDS011;5296;51.060;13.750;2023-03-23T07:14:55;1.33;;;1.20;;
10497;SDS011;5296;51.060;13.750;2023-03-23T07:19:56;1.45;;;1.35;;
10497;SDS011;5296;51.060;13.750;2023-03-23T07:24:56;1.40;;;1.30;;
10497;SDS011;5296;51.060;13.750;2023-03-23T07:30:03;1.30;;;1.20;;
10497;SDS011;5296;51.060;13.750;2023-03-23T07:35:04;2.88;;;1.40;;
10497;SDS011;5296;51.060;13.750;2023-03-23T07:40:15;2.42;;;1.27;;
10497;SDS011;5296;51.060;13.750;2023-03-23T07:45:20;2.00;;;1.38;;
10497;SDS011;5296;51.060;13.750;2023-03-23T07:50:21;1.92;;;1.63;;
10497;SDS011;5296;51.060;13.750;2023-03-23T07:55:25;3.38;;;1.55;;
10497;SDS011;5296;51.060;13.750;2023-03-23T08:00:46;2.45;;;1.30;;
10497;SDS011;5296;51.060;13.750;2023-03-23T08:05:50;2.85;;;1.70;;
10497;SDS011;5296;51.060;13.750;2023-03-23T08:11:10;1.38;;;1.27;;
10497;SDS011;5296;51.060;13.750;2023-03-23T08:16:46;4.35;;;1.48;;
10497;SDS011;5296;51.060;13.750;2023-03-23T08:22:15;3.60;;;1.77;;
10497;SDS011;5296;51.060;13.750;2023-03-23T08:27:35;2.40;;;1.42;;
10497;SDS011;5296;51.060;13.750;2023-03-23T08:32:51;1.95;;;1.60;;
10497;SDS011;5296;51.060;13.750;2023-03-23T08:38:11;2.10;;;1.50;;
10497;SDS011;5296;51.060;13.750;2023-03-23T08:43:31;3.60;;;1.50;;
10497;SDS011;5296;51.060;13.750;2023-03-23T08:48:51;2.40;;;1.48;;
10497;SDS011;5296;51.060;13.750;2023-03-23T08:54:10;2.42;;;1.40;;
10497;SDS011;5296;51.060;13.750;2023-03-23T08:59:32;1.95;;;1.55;;
10497;SDS011;5296;51.060;13.750;2023-03-23T09:05:01;1.95;;;1.30;;
10497;SDS011;5296;51.060;13.750;2023-03-23T09:10:34;2.17;;;1.45;;
10497;SDS011;5296;51.060;13.750;2023-03-23T09:15:35;3.45;;;1.45;;
10497;SDS011;5296;51.060;13.750;2023-03-23T09:20:35;2.05;;;1.60;;
10497;SDS011;5296;51.060;13.750;2023-03-23T09:25:37;4.28;;;1.42;;
10497;SDS011;5296;51.060;13.750;2023-03-23T09:30:38;4.72;;;1.45;;
10497;SDS011;5296;51.060;13.750;2023-03-23T09:35:41;2.65;;;1.70;;
10497;SDS011;5296;51.060;13.750;2023-03-23T09:40:45;2.05;;;1.52;;
10497;SDS011;5296;51.060;13.750;2023-03-23T09:51:21;1.58;;;1.42;;
10497;SDS011;5296;51.060;13.750;2023-03-23T09:56:30;1.50;;;1.40;;
10497;SDS011;5296;51.060;13.750;2023-03-23T10:01:37;2.92;;;1.92;;
10497;SDS011;5296;51.060;13.750;2023-03-23T10:06:41;1.58;;;1.48;;
10497;SDS011;5296;51.060;13.750;2023-03-23T10:11:49;1.40;;;1.30;;
10497;SDS011;5296;51.060;13.750;2023-03-23T10:17:04;2.53;;;1.60;;
10497;SDS011;5296;51.060;13.750;2023-03-23T10:22:14;1.75;;;1.50;;
10497;SDS011;5296;51.060;13.750;2023-03-23T10:33:05;1.90;;;1.50;;
10497;SDS011;5296;51.060;13.750;2023-03-23T10:38:11;3.58;;;1.38;;
10497;SDS011;5296;51.060;13.750;2023-03-23T10:43:16;1.40;;;1.15;;
10497;SDS011;5296;51.060;13.750;2023-03-23T10:48:19;1.73;;;1.10;;
10497;SDS011;5296;51.060;13.750;2023-03-23T10:53:38;1.60;;;1.40;;
10497;SDS011;5296;51.060;13.750;2023-03-23T10:58:43;1.27;;;1.13;;
10497;SDS011;5296;51.060;13.750;2023-03-23T11:03:48;1.52;;;1.40;;
10497;SDS011;5296;51.060;13.750;2023-03-23T11:08:52;1.40;;;1.30;;
10497;SDS011;5296;51.060;13.750;2023-03-23T11:13:58;2.65;;;1.25;;
10497;SDS011;5296;51.060;13.750;2023-03-23T11:19:14;1.40;;;1.30;;
10497;SDS011;5296;51.060;13.750;2023-03-23T11:24:15;1.20;;;1.15;;
10497;SDS011;5296;51.060;13.750;2023-03-23T11:29:20;1.52;;;1.42;;
10497;SDS011;5296;51.060;13.750;2023-03-23T11:34:24;2.45;;;1.25;;
10497;SDS011;5296;51.060;13.750;2023-03-23T11:39:30;2.42;;;1.50;;
10497;SDS011;5296;51.060;13.750;2023-03-23T11:44:46;1.48;;;1.38;;
10497;SDS011;5296;51.060;13.750;2023-03-23T11:55:19;1.95;;;1.40;;
10497;SDS011;5296;51.060;13.750;2023-03-23T12:00:24;2.00;;;1.45;;
10497;SDS011;5296;51.060;13.750;2023-03-23T12:05:28;1.58;;;1.10;;
10497;SDS011;5296;51.060;13.750;2023-03-23T12:27:01;1.15;;;1.13;;
10497;SDS011;5296;51.060;13.750;2023-03-23T12:37:45;2.15;;;1.52;;
10497;SDS011;5296;51.060;13.750;2023-03-23T12:43:01;1.48;;;1.20;;
10497;SDS011;5296;51.060;13.750;2023-03-23T12:48:11;1.95;;;1.20;;
10497;SDS011;5296;51.060;13.750;2023-03-23T12:53:18;2.13;;;1.30;;
10497;SDS011;5296;51.060;13.750;2023-03-23T12:58:23;1.27;;;1.17;;
10497;SDS011;5296;51.060;13.750;2023-03-23T13:08:55;1.30;;;1.20;;
10497;SDS011;5296;51.060;13.750;2023-03-23T13:14:09;1.92;;;1.30;;
10497;SDS011;5296;51.060;13.750;2023-03-23T13:24:36;2.15;;;1.20;;
10497;SDS011;5296;51.060;13.750;2023-03-23T13:29:43;2.03;;;1.30;;
10497;SDS011;5296;51.060;13.750;2023-03-23T13:34:46;1.27;;;1.17;;
10497;SDS011;5296;51.060;13.750;2023-03-23T13:49:53;1.00;;;1.00;;
10497;SDS011;5296;51.060;13.750;2023-03-23T13:55:08;1.40;;;1.20;;
10497;SDS011;5296;51.060;13.750;2023-03-23T14:05:51;1.58;;;1.20;;
10497;SDS011;5296;51.060;13.750;2023-03-23T14:11:10;1.42;;;1.30;;
10497;SDS011;5296;51.060;13.750;2023-03-23T14:16:16;1.55;;;1.30;;
10497;SDS011;5296;51.060;13.750;2023-03-23T14:21:26;1.83;;;1.30;;
10497;SDS011;5296;51.060;13.750;2023-03-23T14:26:33;2.05;;;1.27;;
10497;SDS011;5296;51.060;13.750;2023-03-23T14:31:36;3.85;;;1.13;;
10497;SDS011;5296;51.060;13.750;2023-03-23T14:36:36;2.75;;;1.20;;
10497;SDS011;5296;51.060;13.750;2023-03-23T14:41:37;2.15;;;1.20;;
10497;SDS011;5296;51.060;13.750;2023-03-23T14:46:38;1.40;;;1.30;;
10497;SDS011;5296;51.060;13.750;2023-03-23T14:51:46;1.90;;;1.25;;
10497;SDS011;5296;51.060;13.750;2023-03-23T14:56:50;1.77;;;1.38;;
10497;SDS011;5296;51.060;13.750;2023-03-23T15:01:51;1.50;;;1.05;;
10497;SDS011;5296;51.060;13.750;2023-03-23T15:06:53;2.92;;;1.27;;
10497;SDS011;5296;51.060;13.750;2023-03-23T15:11:57;1.40;;;1.30;;
10497;SDS011;5296;51.060;13.750;2023-03-23T15:16:59;2.80;;;1.40;;
10497;SDS011;5296;51.060;13.750;2023-03-23T15:22:44;1.58;;;1.33;;
10497;SDS011;5296;51.060;13.750;2023-03-23T15:27:32;2.72;;;1.40;;
10497;SDS011;5296;51.060;13.750;2023-03-23T15:32:40;1.63;;;1.13;;
10497;SDS011;5296;51.060;13.750;2023-03-23T15:37:43;1.85;;;1.40;;
10497;SDS011;5296;51.060;13.750;2023-03-23T15:42:45;2.65;;;1.13;;
10497;SDS011;5296;51.060;13.750;2023-03-23T15:47:48;1.30;;;1.20;;
10497;SDS011;5296;51.060;13.750;2023-03-23T15:52:50;3.13;;;1.27;;
10497;SDS011;5296;51.060;13.750;2023-03-23T15:57:52;1.40;;;1.25;;
10497;SDS011;5296;51.060;13.750;2023-03-23T16:02:55;3.60;;;1.20;;
10497;SDS011;5296;51.060;13.750;2023-03-23T16:07:59;1.58;;;1.48;;
10497;SDS011;5296;51.060;13.750;2023-03-23T16:13:00;2.15;;;1.20;;
10497;SDS011;5296;51.060;13.750;2023-03-23T16:18:03;1.25;;;1.10;;
10497;SDS011;5296;51.060;13.750;2023-03-23T16:23:04;1.10;;;1.00;;
10497;SDS011;5296;51.060;13.750;2023-03-23T16:28:09;1.75;;;1.20;;
10497;SDS011;5296;51.060;13.750;2023-03-23T16:33:12;1.23;;;1.08;;
10497;SDS011;5296;51.060;13.750;2023-03-23T16:38:14;2.03;;;1.10;;
10497;SDS011;5296;51.060;13.750;2023-03-23T16:43:17;1.30;;;1.20;;
10497;SDS011;5296;51.060;13.750;2023-03-23T16:48:18;1.00;;;0.90;;
10497;SDS011;5296;51.060;13.750;2023-03-23T16:53:20;2.15;;;1.17;;
10497;SDS011;5296;51.060;13.750;2023-03-23T16:58:22;2.17;;;1.00;;
10497;SDS011;5296;51.060;13.750;2023-03-23T17:03:24;1.77;;;1.13;;
10497;SDS011;5296;51.060;13.750;2023-03-23T17:08:26;0.82;;;0.82;;
10497;SDS011;5296;51.060;13.750;2023-03-23T17:13:28;0.90;;;0.90;;
10497;SDS011;5296;51.060;13.750;2023-03-23T17:18:29;1.17;;;0.90;;
10497;SDS011;5296;51.060;13.750;2023-03-23T17:23:31;1.50;;;1.00;;
10497;SDS011;5296;51.060;13.750;2023-03-23T17:28:33;0.95;;;0.95;;
10497;SDS011;5296;51.060;13.750;2023-03-23T17:33:35;1.25;;;1.05;;
10497;SDS011;5296;51.060;13.750;2023-03-23T17:38:36;1.77;;;0.85;;
10497;SDS011;5296;51.060;13.750;2023-03-23T17:43:38;1.27;;;1.17;;
10497;SDS011;5296;51.060;13.750;2023-03-23T17:48:41;2.05;;;0.90;;
10497;SDS011;5296;51.060;13.750;2023-03-23T17:53:42;1.20;;;1.10;;
10497;SDS011;5296;51.060;13.750;2023-03-23T17:58:44;3.25;;;1.27;;
10497;SDS011;5296;51.060;13.750;2023-03-23T18:03:46;1.50;;;1.27;;
10497;SDS011;5296;51.060;13.750;2023-03-23T18:08:47;2.67;;;1.20;;
10497;SDS011;5296;51.060;13.750;2023-03-23T18:13:49;1.50;;;1.25;;
10497;SDS011;5296;51.060;13.750;2023-03-23T18:18:51;1.63;;;1.08;;
10497;SDS011;5296;51.060;13.750;2023-03-23T18:23:52;2.08;;;1.45;;
10497;SDS011;5296;51.060;13.750;2023-03-23T18:29:00;1.92;;;1.50;;
10497;SDS011;5296;51.060;13.750;2023-03-23T18:34:02;1.45;;;1.35;;
10497;SDS011;5296;51.060;13.750;2023-03-23T18:39:03;1.42;;;1.33;;
10497;SDS011;5296;51.060;13.750;2023-03-23T18:44:05;1.70;;;1.45;;
10497;SDS011;5296;51.060;13.750;2023-03-23T18:49:07;4.97;;;1.60;;
10497;SDS011;5296;51.060;13.750;2023-03-23T18:54:09;1.60;;;1.50;;
10497;SDS011;5296;51.060;13.750;2023-03-23T18:59:10;2.30;;;1.42;;
10497;SDS011;5296;51.060;13.750;2023-03-23T19:04:12;1.50;;;1.40;;
10497;SDS011;5296;51.060;13.750;2023-03-23T19:09:15;1.63;;;1.50;;
10497;SDS011;5296;51.060;13.750;2023-03-23T19:14:17;3.92;;;1.75;;
10497;SDS011;5296;51.060;13.750;2023-03-23T19:19:19;2.40;;;1.80;;
10497;SDS011;5296;51.060;13.750;2023-03-23T19:24:21;3.25;;;1.60;;
10497;SDS011;5296;51.060;13.750;2023-03-23T19:29:23;1.95;;;1.48;;
10497;SDS011;5296;51.060;13.750;2023-03-23T19:34:27;3.30;;;1.77;;
10497;SDS011;5296;51.060;13.750;2023-03-23T19:39:31;2.38;;;1.80;;
10497;SDS011;5296;51.060;13.750;2023-03-23T19:44:33;3.97;;;1.75;;
10497;SDS011;5296;51.060;13.750;2023-03-23T19:49:35;2.10;;;1.90;;
10497;SDS011;5296;51.060;13.750;2023-03-23T19:54:39;5.15;;;2.35;;
10497;SDS011;5296;51.060;13.750;2023-03-23T19:59:41;2.90;;;2.08;;
10497;SDS011;5296;51.060;13.750;2023-03-23T20:04:44;2.92;;;2.30;;
10497;SDS011;5296;51.060;13.750;2023-03-23T20:09:46;2.95;;;2.38;;
10497;SDS011;5296;51.060;13.750;2023-03-23T20:14:48;2.45;;;2.00;;
10497;SDS011;5296;51.060;13.750;2023-03-23T20:19:50;3.17;;;2.72;;
10497;SDS011;5296;51.060;13.750;2023-03-23T20:24:52;3.63;;;2.50;;
10497;SDS011;5296;51.060;13.750;2023-03-23T20:29:54;3.20;;;2.67;;
10497;SDS011;5296;51.060;13.750;2023-03-23T20:34:56;4.00;;;2.72;;
10497;SDS011;5296;51.060;13.750;2023-03-23T20:39:57;2.95;;;2.67;;
10497;SDS011;5296;51.060;13.750;2023-03-23T20:44:59;3.33;;;2.90;;
10497;SDS011;5296;51.060;13.750;2023-03-23T20:50:02;4.35;;;2.97;;
10497;SDS011;5296;51.060;13.750;2023-03-23T20:55:06;4.00;;;3.00;;
10497;SDS011;5296;51.060;13.750;2023-03-23T21:00:08;2.88;;;2.67;;
10497;SDS011;5296;51.060;13.750;2023-03-23T21:05:09;3.40;;;2.65;;
10497;SDS011;5296;51.060;13.750;2023-03-23T21:10:11;6.50;;;2.92;;
10497;SDS011;5296;51.060;13.750;2023-03-23T21:15:13;2.90;;;2.58;;
10497;SDS011;5296;51.060;13.750;2023-03-23T21:20:14;3.25;;;2.63;;
10497;SDS011;5296;51.060;13.750;2023-03-23T21:25:16;3.08;;;2.47;;
10497;SDS011;5296;51.060;13.750;2023-03-23T21:30:18;3.83;;;2.40;;
10497;SDS011;5296;51.060;13.750;2023-03-23T21:35:22;2.40;;;2.13;;
10497;SDS011;5296;51.060;13.750;2023-03-23T21:40:23;1.90;;;1.80;;
10497;SDS011;5296;51.060;13.750;2023-03-23T21:45:25;2.22;;;1.67;;
10497;SDS011;5296;51.060;13.750;2023-03-23T21:50:27;1.88;;;1.77;;
10497;SDS011;5296;51.060;13.750;2023-03-23T21:55:30;2.25;;;1.67;;
10497;SDS011;5296;51.060;13.750;2023-03-23T22:00:34;2.05;;;1.85;;
10497;SDS011;5296;51.060;13.750;2023-03-23T22:05:38;1.50;;;1.40;;
10497;SDS011;5296;51.060;13.750;2023-03-23T22:10:40;2.92;;;1.77;;
10497;SDS011;5296;51.060;13.750;2023-03-23T22:16:01;2.22;;;1.58;;
10497;SDS011;5296;51.060;13.750;2023-03-23T22:21:05;2.10;;;1.60;;
10497;SDS011;5296;51.060;13.750;2023-03-23T22:26:07;2.20;;;1.60;;
10497;SDS011;5296;51.060;13.750;2023-03-23T22:31:18;1.50;;;1.40;;
10497;SDS011;5296;51.060;13.750;2023-03-23T22:36:23;1.95;;;1.40;;
10497;SDS011;5296;51.060;13.750;2023-03-23T22:41:27;1.98;;;1.55;;
10497;SDS011;5296;51.060;13.750;2023-03-23T22:46:30;1.70;;;1.60;;
10497;SDS011;5296;51.060;13.750;2023-03-23T22:51:32;1.60;;;1.50;;
10497;SDS011;5296;51.060;13.750;2023-03-23T22:56:34;2.20;;;2.00;;
10497;SDS011;5296;51.060;13.750;2023-03-23T23:01:37;2.45;;;1.90;;
10497;SDS011;5296;51.060;13.750;2023-03-23T23:06:39;1.70;;;1.60;;
10497;SDS011;5296;51.060;13.750;2023-03-23T23:11:41;2.08;;;1.77;;
10497;SDS011;5296;51.060;13.750;2023-03-23T23:16:42;1.73;;;1.63;;
10497;SDS011;5296;51.060;13.750;2023-03-23T23:21:44;1.88;;;1.77;;
10497;SDS011;5296;51.060;13.750;2023-03-23T23:26:46;1.75;;;1.65;;
10497;SDS011;5296;51.060;13.750;2023-03-23T23:31:48;2.85;;;2.00;;
10497;SDS011;5296;51.060;13.750;2023-03-23T23:36:49;1.90;;;1.80;;
10497;SDS011;5296;51.060;13.750;2023-03-23T23:41:52;1.90;;;1.80;;
10497;SDS011;5296;51.060;13.750;2023-03-23T23:46:53;1.55;;;1.45;;
10497;SDS011;5296;51.060;13.750;2023-03-23T23:51:57;1.80;;;1.70;;
10497;SDS011;5296;51.060;13.750;2023-03-23T23:56:59;1.55;;;1.38;;
